x

Matinicus Rock, Me (mism1) Weather Station

5:00 - Wed 22nd Feb 2017 All times are EST. -5 hours from GMT.

  • Wind
    16mph, 17mph gusts
  • Luft Temp 40°f
  • Sea Pressure 1016.1mb
  • Matinicus Rock, Me
  • Matinicus Rock, Me

More Historic Weather Station data

Upgrade to MSW Pro to gain access to the past 30 days of data for over 8000 Wavebouys and Weather Stations around the globe.

Join Pro

Comparision Forecast

View Surf forecast
   
Mi 02/22 5:00 16 17 mph 1016.1mb 40f
4:00 18 21 mph 1016mb 40f
3:00 24 25 mph 1016.5mb 40f
2:00 24 26 mph 1017.1mb 39f
1:00 24 26 mph 1018.1mb 39f
12:00 24 26 mph 1018.8mb 38f
Di 02/21 11:00 22 23 mph 1019.1mb 37f
10:00 18
mph
1020.5mb 36f
9:00 16 18 mph 1020.8mb 35f
8:00 13 14 mph 1021.8mb 34f
7:00 11 13 mph 1022.6mb 33f
6:00 9 10 mph 1023.3mb 33f
5:00 9 10 mph 1023.2mb 32f
4:00 8 9 mph 1024.1mb 33f
3:00 5 7 mph 1024.7mb 35f
2:00 5 6 mph 1025mb 34f
1:00 1 3 mph 1025.6mb 32f
12:00 3 5 mph 1026.3mb 31f
11:00 7 8 mph 1027.3mb 30f
10:00 10 13 mph 1027.9mb 29f
9:00 15 17 mph 1028.1mb 28f
8:00 18 21 mph 1028mb 28f
7:00 22 23 mph 1027.9mb 29f
6:00 17 22 mph 1027.7mb 29f
5:00 20 22 mph 1027.1mb 29f
4:00 20 23 mph 1027mb 30f
3:00 24 26 mph 1026.7mb 31f
2:00 24 28 mph 1027mb 31f
1:00 24 28 mph 1026.4mb 32f
12:00 28 31 mph 1026.4mb 34f
Mo 02/20 11:00 25 28 mph 1025.2mb 35f
10:00 21 23 mph 1025.2mb 36f
9:00 21 23 mph 1024.6mb 37f
8:00 18 21 mph 1024.3mb 38f
7:00 18 20 mph 1023.4mb 38f
6:00 20 21 mph 1023mb 39f
5:00 17 20 mph 1022.1mb 39f
4:00 17 20 mph 1021.2mb 39f
3:00 18 21 mph 1020mb 38f
2:00 17 20 mph 1019mb 38f
1:00 21 23 mph 1018.6mb 37f
12:00 21 24 mph 1018.6mb 36f
11:00 22 24 mph 1018.7mb 36f
10:00 26 28 mph 1018.6mb 35f
9:00 23 25 mph 1018.2mb 35f
8:00 26 30 mph 1017.5mb 36f
7:00 30 32 mph 1016.4mb 35f
6:00 24 26 mph 1015.4mb 36f
5:00 22 24 mph 1014.4mb 36f
4:00 23 24 mph 1013.5mb 37f
3:00 20 22 mph 1012.4mb 38f
2:00 22 24 mph 1011.8mb 38f
1:00 23 24 mph 1011.2mb 39f
12:00 18 21 mph 1010.6mb 39f
So 02/19 11:00 22 24 mph 1010.1mb 40f
10:00 20 21 mph 1008.9mb 43f
9:00 22
mph
1008.2mb 44f
8:00 24 25 mph 1007.8mb 44f
7:00 18 21 mph 1007.1mb 43f
6:00 24 26 mph 1005.7mb 46f
5:00 21 23 mph 1004.5mb 44f
4:00 24 25 mph 1003.4mb 42f
3:00 20 21 mph 1002.5mb 43f
2:00 23 26 mph 1001.7mb 43f
1:00 20
mph
1001.4mb 43f
12:00 18 20 mph 1001.6mb 43f
11:00 18 20 mph 1002.4mb 42f
10:00 22 23 mph 1002.4mb 43f
9:00 21 23 mph 1002.3mb 43f
8:00 20 21 mph 1001.7mb 43f
7:00 21
mph
1001mb 43f
6:00 21 22 mph 1000.2mb 43f
5:00 18 20 mph 998.9mb 43f
4:00 20 22 mph 998.2mb 42f
3:00 21 23 mph 997.7mb 43f
2:00 23 24 mph 997.2mb 44f
1:00 21 22 mph 997.2mb 44f
12:00 24 25 mph 996.7mb 45f
Sa 02/18 11:00 28 30 mph 996.3mb 46f
10:00 29 32 mph 996.2mb 45f
9:00 31 34 mph 996.1mb 44f